sensor_id;sensor_type;location;lat;lon;timestamp;temperature;humidity
31455;DHT22;18084;53.028;8.834;2023-09-19T00:00:05;16.50;99.90
31455;DHT22;18084;53.028;8.834;2023-09-19T00:02:31;16.40;99.90
31455;DHT22;18084;53.028;8.834;2023-09-19T00:04:58;16.40;99.90
31455;DHT22;18084;53.028;8.834;2023-09-19T00:07:23;16.30;99.90
31455;DHT22;18084;53.028;8.834;2023-09-19T00:09:49;17.00;99.90
31455;DHT22;18084;53.028;8.834;2023-09-19T00:12:15;16.40;99.90
31455;DHT22;18084;53.028;8.834;2023-09-19T00:14:40;18.80;99.90
31455;DHT22;18084;53.028;8.834;2023-09-19T00:17:06;16.40;99.90
31455;DHT22;18084;53.028;8.834;2023-09-19T00:19:36;16.40;99.90
31455;DHT22;18084;53.028;8.834;2023-09-19T00:22:03;16.50;99.90
31455;DHT22;18084;53.028;8.834;2023-09-19T00:24:29;16.50;99.90
31455;DHT22;18084;53.028;8.834;2023-09-19T00:26:54;16.20;99.90
31455;DHT22;18084;53.028;8.834;2023-09-19T00:29:21;16.00;99.90
31455;DHT22;18084;53.028;8.834;2023-09-19T00:31:46;16.50;99.90
31455;DHT22;18084;53.028;8.834;2023-09-19T00:34:12;16.50;99.90
31455;DHT22;18084;53.028;8.834;2023-09-19T00:36:37;16.50;99.90
31455;DHT22;18084;53.028;8.834;2023-09-19T00:39:05;16.60;99.90
31455;DHT22;18084;53.028;8.834;2023-09-19T00:41:34;16.50;99.90
31455;DHT22;18084;53.028;8.834;2023-09-19T00:44:01;16.60;99.90
31455;DHT22;18084;53.028;8.834;2023-09-19T00:46:27;16.50;99.90
31455;DHT22;18084;53.028;8.834;2023-09-19T00:48:53;16.50;99.90
31455;DHT22;18084;53.028;8.834;2023-09-19T00:51:19;16.60;99.90
31455;DHT22;18084;53.028;8.834;2023-09-19T00:53:46;16.60;99.90
31455;DHT22;18084;53.028;8.834;2023-09-19T00:56:11;16.60;99.90
31455;DHT22;18084;53.028;8.834;2023-09-19T00:58:37;16.60;99.90
31455;DHT22;18084;53.028;8.834;2023-09-19T01:01:04;17.50;99.90
31455;DHT22;18084;53.028;8.834;2023-09-19T01:03:32;17.60;99.90
31455;DHT22;18084;53.028;8.834;2023-09-19T01:06:02;16.90;99.90
31455;DHT22;18084;53.028;8.834;2023-09-19T01:08:27;16.70;99.90
31455;DHT22;18084;53.028;8.834;2023-09-19T01:11:19;16.70;99.90
31455;DHT22;18084;53.028;8.834;2023-09-19T01:18:49;16.60;99.90
31455;DHT22;18084;53.028;8.834;2023-09-19T01:21:28;16.60;99.90
31455;DHT22;18084;53.028;8.834;2023-09-19T01:31:44;15.80;99.90
31455;DHT22;18084;53.028;8.834;2023-09-19T01:34:10;15.70;99.90
31455;DHT22;18084;53.028;8.834;2023-09-19T01:36:36;15.80;99.90
31455;DHT22;18084;53.028;8.834;2023-09-19T01:39:05;15.40;99.90
31455;DHT22;18084;53.028;8.834;2023-09-19T01:42:37;15.30;99.90
31455;DHT22;18084;53.028;8.834;2023-09-19T01:44:34;15.30;99.90
31455;DHT22;18084;53.028;8.834;2023-09-19T01:47:04;16.80;99.90
31455;DHT22;18084;53.028;8.834;2023-09-19T01:49:44;15.10;99.90
31455;DHT22;18084;53.028;8.834;2023-09-19T01:52:12;15.10;99.90
31455;DHT22;18084;53.028;8.834;2023-09-19T01:54:46;15.10;99.90
31455;DHT22;18084;53.028;8.834;2023-09-19T01:57:29;14.90;99.90
31455;DHT22;18084;53.028;8.834;2023-09-19T02:00:03;14.80;99.90
31455;DHT22;18084;53.028;8.834;2023-09-19T02:02:38;14.80;99.90
31455;DHT22;18084;53.028;8.834;2023-09-19T02:05:05;14.70;99.90
31455;DHT22;18084;53.028;8.834;2023-09-19T02:07:31;14.70;99.90
31455;DHT22;18084;53.028;8.834;2023-09-19T04:47:22;13.70;99.90
31455;DHT22;18084;53.028;8.834;2023-09-19T04:49:48;13.60;99.90
31455;DHT22;18084;53.028;8.834;2023-09-19T04:52:13;13.60;99.90
31455;DHT22;18084;53.028;8.834;2023-09-19T04:54:40;13.60;99.90
31455;DHT22;18084;53.028;8.834;2023-09-19T04:57:06;13.60;99.90
31455;DHT22;18084;53.028;8.834;2023-09-19T04:59:32;13.60;99.90
31455;DHT22;18084;53.028;8.834;2023-09-19T05:01:58;13.70;99.90
31455;DHT22;18084;53.028;8.834;2023-09-19T05:04:23;13.60;99.90
31455;DHT22;18084;53.028;8.834;2023-09-19T05:06:49;13.60;99.90
31455;DHT22;18084;53.028;8.834;2023-09-19T05:09:14;15.10;99.90
31455;DHT22;18084;53.028;8.834;2023-09-19T05:11:41;14.80;99.90
31455;DHT22;18084;53.028;8.834;2023-09-19T05:14:06;13.60;99.90
31455;DHT22;18084;53.028;8.834;2023-09-19T05:16:31;13.60;99.90
31455;DHT22;18084;53.028;8.834;2023-09-19T05:18:57;13.70;99.90
31455;DHT22;18084;53.028;8.834;2023-09-19T05:21:28;13.70;99.90
31455;DHT22;18084;53.028;8.834;2023-09-19T05:23:55;13.80;99.90
31455;DHT22;18084;53.028;8.834;2023-09-19T05:26:21;13.80;99.90
31455;DHT22;18084;53.028;8.834;2023-09-19T05:28:46;13.80;99.90
31455;DHT22;18084;53.028;8.834;2023-09-19T05:31:13;13.80;99.90
31455;DHT22;18084;53.028;8.834;2023-09-19T05:33:39;13.90;99.90
31455;DHT22;18084;53.028;8.834;2023-09-19T05:36:05;13.90;99.90
31455;DHT22;18084;53.028;8.834;2023-09-19T05:38:30;14.00;99.90
31455;DHT22;18084;53.028;8.834;2023-09-19T05:40:56;14.00;99.90
31455;DHT22;18084;53.028;8.834;2023-09-19T05:43:21;14.10;99.90
31455;DHT22;18084;53.028;8.834;2023-09-19T05:45:47;14.20;99.90
31455;DHT22;18084;53.028;8.834;2023-09-19T05:48:13;14.30;99.90
31455;DHT22;18084;53.028;8.834;2023-09-19T05:50:41;14.40;99.90
31455;DHT22;18084;53.028;8.834;2023-09-19T05:53:06;14.50;99.90
31455;DHT22;18084;53.028;8.834;2023-09-19T05:55:32;14.60;99.90
31455;DHT22;18084;53.028;8.834;2023-09-19T05:57:58;14.70;99.90
31455;DHT22;18084;53.028;8.834;2023-09-19T06:00:23;14.80;99.90
31455;DHT22;18084;53.028;8.834;2023-09-19T06:02:56;14.90;99.90
31455;DHT22;18084;53.028;8.834;2023-09-19T06:05:22;14.90;99.90
31455;DHT22;18084;53.028;8.834;2023-09-19T06:07:48;15.00;99.90
31455;DHT22;18084;53.028;8.834;2023-09-19T06:10:13;15.10;99.90
31455;DHT22;18084;53.028;8.834;2023-09-19T06:12:40;15.10;99.90
31455;DHT22;18084;53.028;8.834;2023-09-19T06:15:06;15.10;99.90
31455;DHT22;18084;53.028;8.834;2023-09-19T06:17:34;15.10;99.90
31455;DHT22;18084;53.028;8.834;2023-09-19T06:20:04;15.00;99.90
31455;DHT22;18084;53.028;8.834;2023-09-19T06:22:30;14.90;99.90
31455;DHT22;18084;53.028;8.834;2023-09-19T06:24:55;15.00;99.90
31455;DHT22;18084;53.028;8.834;2023-09-19T06:27:21;14.80;99.90
31455;DHT22;18084;53.028;8.834;2023-09-19T06:29:47;14.90;99.90
31455;DHT22;18084;53.028;8.834;2023-09-19T06:32:12;14.80;99.90
31455;DHT22;18084;53.028;8.834;2023-09-19T06:34:38;14.90;99.90
31455;DHT22;18084;53.028;8.834;2023-09-19T06:37:04;14.90;99.90
31455;DHT22;18084;53.028;8.834;2023-09-19T06:39:31;14.80;99.90
31455;DHT22;18084;53.028;8.834;2023-09-19T06:41:57;14.90;99.90
31455;DHT22;18084;53.028;8.834;2023-09-19T06:44:22;14.90;99.90
31455;DHT22;18084;53.028;8.834;2023-09-19T06:46:50;14.90;99.90
31455;DHT22;18084;53.028;8.834;2023-09-19T06:49:17;15.00;99.90
31455;DHT22;18084;53.028;8.834;2023-09-19T06:51:42;15.00;99.90
31455;DHT22;18084;53.028;8.834;2023-09-19T06:54:09;15.00;99.90
31455;DHT22;18084;53.028;8.834;2023-09-19T06:57:20;15.10;99.90
31455;DHT22;18084;53.028;8.834;2023-09-19T06:59:29;15.10;99.90
31455;DHT22;18084;53.028;8.834;2023-09-19T07:01:57;15.50;99.90
31455;DHT22;18084;53.028;8.834;2023-09-19T07:04:24;16.30;99.60
31455;DHT22;18084;53.028;8.834;2023-09-19T07:06:50;15.30;95.50
31455;DHT22;18084;53.028;8.834;2023-09-19T07:09:16;17.10;95.40
31455;DHT22;18084;53.028;8.834;2023-09-19T07:11:41;15.60;80.60
31455;DHT22;18084;53.028;8.834;2023-09-19T07:14:08;18.00;83.40
31455;DHT22;18084;53.028;8.834;2023-09-19T07:16:37;17.50;84.90
31455;DHT22;18084;53.028;8.834;2023-09-19T07:19:04;17.70;78.00
31455;DHT22;18084;53.028;8.834;2023-09-19T07:21:29;18.10;70.90
31455;DHT22;18084;53.028;8.834;2023-09-19T07:23:55;17.90;59.70
31455;DHT22;18084;53.028;8.834;2023-09-19T07:26:22;17.00;16.70
31455;DHT22;18084;53.028;8.834;2023-09-19T07:28:48;17.90;1.00
31455;DHT22;18084;53.028;8.834;2023-09-19T07:31:13;18.10;1.00
31455;DHT22;18084;53.028;8.834;2023-09-19T07:33:39;16.80;1.00
31455;DHT22;18084;53.028;8.834;2023-09-19T07:36:05;17.50;1.00
31455;DHT22;18084;53.028;8.834;2023-09-19T07:38:31;17.30;1.00
31455;DHT22;18084;53.028;8.834;2023-09-19T07:41:01;17.70;1.00
31455;DHT22;18084;53.028;8.834;2023-09-19T07:43:27;16.90;1.00
31455;DHT22;18084;53.028;8.834;2023-09-19T07:45:53;17.10;1.00
31455;DHT22;18084;53.028;8.834;2023-09-19T07:48:18;17.00;1.00
31455;DHT22;18084;53.028;8.834;2023-09-19T07:50:44;18.40;1.00
31455;DHT22;18084;53.028;8.834;2023-09-19T07:53:10;17.70;99.90
31455;DHT22;18084;53.028;8.834;2023-09-19T07:55:38;18.10;99.90
31455;DHT22;18084;53.028;8.834;2023-09-19T07:58:06;19.10;99.90
31455;DHT22;18084;53.028;8.834;2023-09-19T08:00:32;19.60;99.90
31455;DHT22;18084;53.028;8.834;2023-09-19T08:03:00;19.60;99.90
31455;DHT22;18084;53.028;8.834;2023-09-19T08:05:26;19.80;99.90
31455;DHT22;18084;53.028;8.834;2023-09-19T08:07:51;19.10;99.90
31455;DHT22;18084;53.028;8.834;2023-09-19T08:10:21;22.50;99.90
31455;DHT22;18084;53.028;8.834;2023-09-19T08:12:50;22.10;1.00
31455;DHT22;18084;53.028;8.834;2023-09-19T08:15:21;21.20;99.90
31455;DHT22;18084;53.028;8.834;2023-09-19T08:17:47;21.70;99.90
31455;DHT22;18084;53.028;8.834;2023-09-19T08:20:13;21.30;99.90
31455;DHT22;18084;53.028;8.834;2023-09-19T08:22:52;19.70;99.90
31455;DHT22;18084;53.028;8.834;2023-09-19T08:25:18;21.10;99.90
31455;DHT22;18084;53.028;8.834;2023-09-19T08:27:44;20.80;99.90
31455;DHT22;18084;53.028;8.834;2023-09-19T08:30:17;20.90;99.90
31455;DHT22;18084;53.028;8.834;2023-09-19T08:33:03;19.40;1.00
31455;DHT22;18084;53.028;8.834;2023-09-19T08:35:32;19.00;99.90
31455;DHT22;18084;53.028;8.834;2023-09-19T08:37:58;19.20;99.90
31455;DHT22;18084;53.028;8.834;2023-09-19T08:40:32;17.90;99.90
31455;DHT22;18084;53.028;8.834;2023-09-19T08:42:58;18.70;99.90
31455;DHT22;18084;53.028;8.834;2023-09-19T08:45:24;20.30;99.90
31455;DHT22;18084;53.028;8.834;2023-09-19T08:50:33;19.50;1.00
31455;DHT22;18084;53.028;8.834;2023-09-19T08:53:04;19.80;23.80
31455;DHT22;18084;53.028;8.834;2023-09-19T08:55:33;19.90;1.00
31455;DHT22;18084;53.028;8.834;2023-09-19T08:58:06;19.70;99.90
31455;DHT22;18084;53.028;8.834;2023-09-19T09:00:35;19.40;99.90
31455;DHT22;18084;53.028;8.834;2023-09-19T09:03:01;21.50;99.90
31455;DHT22;18084;53.028;8.834;2023-09-19T09:05:28;19.50;13.00
31455;DHT22;18084;53.028;8.834;2023-09-19T09:07:53;19.80;85.20
31455;DHT22;18084;53.028;8.834;2023-09-19T09:10:22;18.90;99.90
31455;DHT22;18084;53.028;8.834;2023-09-19T09:12:51;18.90;99.90
31455;DHT22;18084;53.028;8.834;2023-09-19T09:15:19;19.40;1.00
31455;DHT22;18084;53.028;8.834;2023-09-19T09:17:46;19.30;23.40
31455;DHT22;18084;53.028;8.834;2023-09-19T09:20:13;19.70;1.00
31455;DHT22;18084;53.028;8.834;2023-09-19T09:22:39;19.60;99.90
31455;DHT22;18084;53.028;8.834;2023-09-19T09:25:09;19.70;99.90
31455;DHT22;18084;53.028;8.834;2023-09-19T09:27:35;20.50;99.90
31455;DHT22;18084;53.028;8.834;2023-09-19T09:30:00;19.70;1.00
31455;DHT22;18084;53.028;8.834;2023-09-19T09:32:26;19.80;99.90
31455;DHT22;18084;53.028;8.834;2023-09-19T09:37:19;19.60;99.90
31455;DHT22;18084;53.028;8.834;2023-09-19T09:40:03;19.50;99.90
31455;DHT22;18084;53.028;8.834;2023-09-19T09:42:44;19.40;45.00
31455;DHT22;18084;53.028;8.834;2023-09-19T09:45:18;19.30;83.40
31455;DHT22;18084;53.028;8.834;2023-09-19T09:47:59;19.50;99.90
31455;DHT22;18084;53.028;8.834;2023-09-19T09:50:32;19.60;99.90
31455;DHT22;18084;53.028;8.834;2023-09-19T09:53:04;19.70;66.80
31455;DHT22;18084;53.028;8.834;2023-09-19T09:58:16;19.40;1.00
31455;DHT22;18084;53.028;8.834;2023-09-19T10:00:53;18.90;1.00
31455;DHT22;18084;53.028;8.834;2023-09-19T10:03:38;18.90;99.90
31455;DHT22;18084;53.028;8.834;2023-09-19T10:06:13;19.10;71.40
31455;DHT22;18084;53.028;8.834;2023-09-19T10:12:07;18.70;99.90
31455;DHT22;18084;53.028;8.834;2023-09-19T10:14:35;18.70;46.70
31455;DHT22;18084;53.028;8.834;2023-09-19T10:17:04;18.70;99.90
31455;DHT22;18084;53.028;8.834;2023-09-19T10:19:32;18.60;1.00
31455;DHT22;18084;53.028;8.834;2023-09-19T10:21:59;18.80;92.10
31455;DHT22;18084;53.028;8.834;2023-09-19T10:24:26;19.10;1.00
31455;DHT22;18084;53.028;8.834;2023-09-19T10:26:53;18.70;99.90
31455;DHT22;18084;53.028;8.834;2023-09-19T10:29:20;18.50;1.00
31455;DHT22;18084;53.028;8.834;2023-09-19T10:31:47;18.40;99.90
31455;DHT22;18084;53.028;8.834;2023-09-19T10:34:16;18.30;49.70
31455;DHT22;18084;53.028;8.834;2023-09-19T10:36:45;18.50;2.30
31455;DHT22;18084;53.028;8.834;2023-09-19T10:39:15;18.70;80.20
31455;DHT22;18084;53.028;8.834;2023-09-19T10:41:47;18.90;1.00
31455;DHT22;18084;53.028;8.834;2023-09-19T10:44:21;19.10;99.90
31455;DHT22;18084;53.028;8.834;2023-09-19T10:46:49;19.20;99.90
31455;DHT22;18084;53.028;8.834;2023-09-19T10:49:14;19.30;99.90
31455;DHT22;18084;53.028;8.834;2023-09-19T10:51:41;20.50;99.90
31455;DHT22;18084;53.028;8.834;2023-09-19T10:54:11;19.40;99.90
31455;DHT22;18084;53.028;8.834;2023-09-19T10:56:39;19.40;31.30
31455;DHT22;18084;53.028;8.834;2023-09-19T11:01:42;19.40;41.70
31455;DHT22;18084;53.028;8.834;2023-09-19T11:07:04;19.30;99.90
31455;DHT22;18084;53.028;8.834;2023-09-19T11:09:55;19.40;99.90
31455;DHT22;18084;53.028;8.834;2023-09-19T11:14:54;19.60;99.90
31455;DHT22;18084;53.028;8.834;2023-09-19T11:30:42;19.40;1.00
31455;DHT22;18084;53.028;8.834;2023-09-19T11:33:24;19.70;1.00
31455;DHT22;18084;53.028;8.834;2023-09-19T11:36:02;19.50;15.90
31455;DHT22;18084;53.028;8.834;2023-09-19T11:43:47;19.50;99.90
31455;DHT22;18084;53.028;8.834;2023-09-19T11:46:13;19.60;1.00
31455;DHT22;18084;53.028;8.834;2023-09-19T11:48:42;19.60;99.90
31455;DHT22;18084;53.028;8.834;2023-09-19T11:51:19;19.80;99.90
31455;DHT22;18084;53.028;8.834;2023-09-19T11:53:49;19.80;99.90
31455;DHT22;18084;53.028;8.834;2023-09-19T11:56:22;20.60;99.90
31455;DHT22;18084;53.028;8.834;2023-09-19T11:58:50;20.00;1.00
31455;DHT22;18084;53.028;8.834;2023-09-19T12:01:31;20.20;25.60
31455;DHT22;18084;53.028;8.834;2023-09-19T12:03:59;20.00;61.10
31455;DHT22;18084;53.028;8.834;2023-09-19T12:06:25;19.90;99.90
31455;DHT22;18084;53.028;8.834;2023-09-19T12:08:51;20.00;1.00
31455;DHT22;18084;53.028;8.834;2023-09-19T12:11:19;20.10;1.00
31455;DHT22;18084;53.028;8.834;2023-09-19T12:13:46;22.10;2.70
31455;DHT22;18084;53.028;8.834;2023-09-19T12:16:18;20.10;99.90
31455;DHT22;18084;53.028;8.834;2023-09-19T12:18:47;20.10;99.90
31455;DHT22;18084;53.028;8.834;2023-09-19T12:21:29;20.20;99.90
31455;DHT22;18084;53.028;8.834;2023-09-19T12:24:13;20.10;99.90
31455;DHT22;18084;53.028;8.834;2023-09-19T12:26:39;20.00;1.00
31455;DHT22;18084;53.028;8.834;2023-09-19T12:29:10;20.20;99.90
31455;DHT22;18084;53.028;8.834;2023-09-19T12:31:35;20.10;99.90
31455;DHT22;18084;53.028;8.834;2023-09-19T12:34:02;20.10;99.90
31455;DHT22;18084;53.028;8.834;2023-09-19T12:36:28;21.70;96.30
31455;DHT22;18084;53.028;8.834;2023-09-19T12:38:58;20.20;65.60
31455;DHT22;18084;53.028;8.834;2023-09-19T12:41:33;20.20;99.90
31455;DHT22;18084;53.028;8.834;2023-09-19T12:43:59;20.10;99.90
31455;DHT22;18084;53.028;8.834;2023-09-19T12:46:25;21.20;99.90
31455;DHT22;18084;53.028;8.834;2023-09-19T12:49:41;20.50;99.90
31455;DHT22;18084;53.028;8.834;2023-09-19T12:51:37;20.30;99.90
31455;DHT22;18084;53.028;8.834;2023-09-19T12:54:03;20.10;90.80
31455;DHT22;18084;53.028;8.834;2023-09-19T12:56:30;20.20;99.90
31455;DHT22;18084;53.028;8.834;2023-09-19T12:59:04;20.00;99.90
31455;DHT22;18084;53.028;8.834;2023-09-19T13:01:31;20.20;99.90
31455;DHT22;18084;53.028;8.834;2023-09-19T13:04:13;20.20;99.90
31455;DHT22;18084;53.028;8.834;2023-09-19T13:06:43;20.30;99.90
31455;DHT22;18084;53.028;8.834;2023-09-19T13:09:10;20.60;1.00
31455;DHT22;18084;53.028;8.834;2023-09-19T13:11:36;20.40;1.00
31455;DHT22;18084;53.028;8.834;2023-09-19T13:16:53;20.40;99.90
31455;DHT22;18084;53.028;8.834;2023-09-19T13:22:42;20.30;99.90
31455;DHT22;18084;53.028;8.834;2023-09-19T13:25:16;20.20;80.90
31455;DHT22;18084;53.028;8.834;2023-09-19T13:27:48;20.30;75.60
31455;DHT22;18084;53.028;8.834;2023-09-19T13:30:16;20.70;99.90
31455;DHT22;18084;53.028;8.834;2023-09-19T13:32:42;20.60;99.90
31455;DHT22;18084;53.028;8.834;2023-09-19T13:35:08;20.50;99.90
31455;DHT22;18084;53.028;8.834;2023-09-19T13:37:41;21.10;99.90
31455;DHT22;18084;53.028;8.834;2023-09-19T13:40:13;20.30;12.40
31455;DHT22;18084;53.028;8.834;2023-09-19T13:42:39;20.50;99.90
31455;DHT22;18084;53.028;8.834;2023-09-19T13:45:07;20.70;1.00
31455;DHT22;18084;53.028;8.834;2023-09-19T13:47:37;20.70;1.00
31455;DHT22;18084;53.028;8.834;2023-09-19T13:50:03;22.10;1.00
31455;DHT22;18084;53.028;8.834;2023-09-19T13:52:33;20.60;1.00
31455;DHT22;18084;53.028;8.834;2023-09-19T13:54:58;20.50;15.30
31455;DHT22;18084;53.028;8.834;2023-09-19T13:57:25;20.60;99.90
31455;DHT22;18084;53.028;8.834;2023-09-19T13:59:51;20.50;99.90
31455;DHT22;18084;53.028;8.834;2023-09-19T14:02:17;21.10;99.90
31455;DHT22;18084;53.028;8.834;2023-09-19T14:04:43;20.40;1.00
31455;DHT22;18084;53.028;8.834;2023-09-19T14:07:09;22.10;99.90
31455;DHT22;18084;53.028;8.834;2023-09-19T14:09:36;20.50;99.90
31455;DHT22;18084;53.028;8.834;2023-09-19T14:12:01;21.00;99.90
31455;DHT22;18084;53.028;8.834;2023-09-19T14:14:27;20.40;99.90
31455;DHT22;18084;53.028;8.834;2023-09-19T14:16:52;20.50;99.90
31455;DHT22;18084;53.028;8.834;2023-09-19T14:19:18;20.50;52.10
31455;DHT22;18084;53.028;8.834;2023-09-19T14:21:44;21.20;22.00
31455;DHT22;18084;53.028;8.834;2023-09-19T14:24:09;20.60;99.90
31455;DHT22;18084;53.028;8.834;2023-09-19T14:26:35;22.40;99.90
31455;DHT22;18084;53.028;8.834;2023-09-19T14:29:01;21.10;99.90
31455;DHT22;18084;53.028;8.834;2023-09-19T14:31:26;20.50;99.90
31455;DHT22;18084;53.028;8.834;2023-09-19T14:33:56;20.20;99.90
31455;DHT22;18084;53.028;8.834;2023-09-19T14:36:22;20.10;99.90
31455;DHT22;18084;53.028;8.834;2023-09-19T14:38:47;20.00;99.90
31455;DHT22;18084;53.028;8.834;2023-09-19T14:41:13;19.90;99.90
31455;DHT22;18084;53.028;8.834;2023-09-19T14:43:38;19.80;99.90
31455;DHT22;18084;53.028;8.834;2023-09-19T14:46:07;19.80;80.20
31455;DHT22;18084;53.028;8.834;2023-09-19T14:48:36;19.20;99.90
31455;DHT22;18084;53.028;8.834;2023-09-19T14:51:04;21.10;6.80
31455;DHT22;18084;53.028;8.834;2023-09-19T14:53:30;19.80;99.90
31455;DHT22;18084;53.028;8.834;2023-09-19T14:55:56;21.80;45.80
31455;DHT22;18084;53.028;8.834;2023-09-19T14:58:21;20.00;99.90
31455;DHT22;18084;53.028;8.834;2023-09-19T15:00:47;21.50;1.00
31455;DHT22;18084;53.028;8.834;2023-09-19T15:03:13;20.90;99.90
31455;DHT22;18084;53.028;8.834;2023-09-19T15:05:40;19.80;99.90
31455;DHT22;18084;53.028;8.834;2023-09-19T15:08:05;19.90;99.90
31455;DHT22;18084;53.028;8.834;2023-09-19T15:10:31;19.50;1.00
31455;DHT22;18084;53.028;8.834;2023-09-19T15:12:56;19.50;59.70
31455;DHT22;18084;53.028;8.834;2023-09-19T15:15:22;19.80;99.90
31455;DHT22;18084;53.028;8.834;2023-09-19T15:17:47;19.40;99.90
31455;DHT22;18084;53.028;8.834;2023-09-19T15:20:13;19.60;56.10
31455;DHT22;18084;53.028;8.834;2023-09-19T15:22:39;19.40;88.30
31455;DHT22;18084;53.028;8.834;2023-09-19T15:25:05;19.40;99.90
31455;DHT22;18084;53.028;8.834;2023-09-19T15:27:31;19.40;99.90
31455;DHT22;18084;53.028;8.834;2023-09-19T15:29:57;19.40;99.90
31455;DHT22;18084;53.028;8.834;2023-09-19T15:32:24;19.30;40.90
31455;DHT22;18084;53.028;8.834;2023-09-19T15:34:49;19.40;99.90
31455;DHT22;18084;53.028;8.834;2023-09-19T15:37:15;22.90;1.00
31455;DHT22;18084;53.028;8.834;2023-09-19T15:39:40;19.60;99.90
31455;DHT22;18084;53.028;8.834;2023-09-19T15:42:06;19.30;99.90
31455;DHT22;18084;53.028;8.834;2023-09-19T15:44:31;19.30;93.40
31455;DHT22;18084;53.028;8.834;2023-09-19T15:46:58;20.40;99.90
31455;DHT22;18084;53.028;8.834;2023-09-19T15:49:23;19.40;99.90
31455;DHT22;18084;53.028;8.834;2023-09-19T15:51:49;19.40;99.90
31455;DHT22;18084;53.028;8.834;2023-09-19T15:54:15;19.20;1.00
31455;DHT22;18084;53.028;8.834;2023-09-19T15:56:41;19.30;99.90
31455;DHT22;18084;53.028;8.834;2023-09-19T15:59:06;19.20;1.00
31455;DHT22;18084;53.028;8.834;2023-09-19T16:01:32;19.30;99.90
31455;DHT22;18084;53.028;8.834;2023-09-19T16:03:57;19.30;99.90
31455;DHT22;18084;53.028;8.834;2023-09-19T16:06:24;19.10;1.00
31455;DHT22;18084;53.028;8.834;2023-09-19T16:08:50;19.10;3.20
31455;DHT22;18084;53.028;8.834;2023-09-19T16:11:18;19.10;99.90
31455;DHT22;18084;53.028;8.834;2023-09-19T16:13:46;19.10;1.00
31455;DHT22;18084;53.028;8.834;2023-09-19T16:16:12;20.30;99.90
31455;DHT22;18084;53.028;8.834;2023-09-19T16:18:40;19.00;1.00
31455;DHT22;18084;53.028;8.834;2023-09-19T16:21:06;19.20;99.90
31455;DHT22;18084;53.028;8.834;2023-09-19T16:23:34;19.50;99.90
31455;DHT22;18084;53.028;8.834;2023-09-19T16:26:07;19.00;1.00
31455;DHT22;18084;53.028;8.834;2023-09-19T16:28:34;19.00;99.90
31455;DHT22;18084;53.028;8.834;2023-09-19T16:31:01;18.90;99.90
31455;DHT22;18084;53.028;8.834;2023-09-19T16:33:37;19.90;99.90
31455;DHT22;18084;53.028;8.834;2023-09-19T16:36:07;18.90;99.90
31455;DHT22;18084;53.028;8.834;2023-09-19T16:38:33;19.00;36.80
31455;DHT22;18084;53.028;8.834;2023-09-19T16:40:58;20.30;99.90
31455;DHT22;18084;53.028;8.834;2023-09-19T16:43:27;19.00;1.00
31455;DHT22;18084;53.028;8.834;2023-09-19T16:48:20;19.00;1.00
31455;DHT22;18084;53.028;8.834;2023-09-19T16:50:45;18.90;1.00
31455;DHT22;18084;53.028;8.834;2023-09-19T16:53:11;18.90;1.00
31455;DHT22;18084;53.028;8.834;2023-09-19T16:55:37;18.90;99.90
31455;DHT22;18084;53.028;8.834;2023-09-19T16:58:03;20.20;99.90
31455;DHT22;18084;53.028;8.834;2023-09-19T17:00:30;18.90;30.20
31455;DHT22;18084;53.028;8.834;2023-09-19T17:02:56;18.80;99.90
31455;DHT22;18084;53.028;8.834;2023-09-19T17:05:22;18.80;99.90
31455;DHT22;18084;53.028;8.834;2023-09-19T17:07:47;18.80;99.90
31455;DHT22;18084;53.028;8.834;2023-09-19T17:10:13;18.70;99.90
31455;DHT22;18084;53.028;8.834;2023-09-19T17:12:38;18.80;99.90
31455;DHT22;18084;53.028;8.834;2023-09-19T17:15:04;18.70;99.90
31455;DHT22;18084;53.028;8.834;2023-09-19T17:17:30;18.70;1.00
31455;DHT22;18084;53.028;8.834;2023-09-19T17:19:55;19.80;99.90
31455;DHT22;18084;53.028;8.834;2023-09-19T17:22:20;18.70;99.90
31455;DHT22;18084;53.028;8.834;2023-09-19T17:24:46;18.70;50.70
31455;DHT22;18084;53.028;8.834;2023-09-19T17:27:12;18.70;1.00
31455;DHT22;18084;53.028;8.834;2023-09-19T17:29:37;21.10;99.90
31455;DHT22;18084;53.028;8.834;2023-09-19T17:32:03;20.00;99.90
31455;DHT22;18084;53.028;8.834;2023-09-19T17:34:29;18.70;99.90
31455;DHT22;18084;53.028;8.834;2023-09-19T17:36:55;18.70;1.00
31455;DHT22;18084;53.028;8.834;2023-09-19T17:39:21;18.60;44.60
31455;DHT22;18084;53.028;8.834;2023-09-19T17:41:46;18.70;1.00
31455;DHT22;18084;53.028;8.834;2023-09-19T17:44:12;19.20;99.90
31455;DHT22;18084;53.028;8.834;2023-09-19T17:46:37;18.60;95.00
31455;DHT22;18084;53.028;8.834;2023-09-19T17:49:04;21.20;99.90
31455;DHT22;18084;53.028;8.834;2023-09-19T17:51:29;19.20;99.90
31455;DHT22;18084;53.028;8.834;2023-09-19T17:53:55;18.60;99.90
31455;DHT22;18084;53.028;8.834;2023-09-19T17:56:24;19.20;99.90
31455;DHT22;18084;53.028;8.834;2023-09-19T17:58:50;18.60;99.90
31455;DHT22;18084;53.028;8.834;2023-09-19T18:01:20;18.60;99.90
31455;DHT22;18084;53.028;8.834;2023-09-19T18:03:46;18.60;99.90
31455;DHT22;18084;53.028;8.834;2023-09-19T18:06:12;19.20;1.00
31455;DHT22;18084;53.028;8.834;2023-09-19T18:08:41;18.60;99.90
31455;DHT22;18084;53.028;8.834;2023-09-19T18:11:17;18.60;1.00
31455;DHT22;18084;53.028;8.834;2023-09-19T18:13:44;18.60;1.00
31455;DHT22;18084;53.028;8.834;2023-09-19T18:16:19;19.50;1.00
31455;DHT22;18084;53.028;8.834;2023-09-19T18:18:52;15.70;1.00
31455;DHT22;18084;53.028;8.834;2023-09-19T18:21:19;22.50;62.60
31455;DHT22;18084;53.028;8.834;2023-09-19T18:23:54;22.50;54.40
31455;DHT22;18084;53.028;8.834;2023-09-19T18:26:20;18.50;32.90
31455;DHT22;18084;53.028;8.834;2023-09-19T18:28:46;18.20;99.90
31455;DHT22;18084;53.028;8.834;2023-09-19T18:31:11;19.20;99.90
31455;DHT22;18084;53.028;8.834;2023-09-19T18:33:39;18.90;99.90
31455;DHT22;18084;53.028;8.834;2023-09-19T18:36:06;18.70;99.90
31455;DHT22;18084;53.028;8.834;2023-09-19T18:38:38;18.60;99.90
31455;DHT22;18084;53.028;8.834;2023-09-19T18:41:14;18.70;99.90
31455;DHT22;18084;53.028;8.834;2023-09-19T18:43:39;18.10;99.90
31455;DHT22;18084;53.028;8.834;2023-09-19T18:46:06;22.00;99.90
31455;DHT22;18084;53.028;8.834;2023-09-19T18:48:51;21.60;99.90
31455;DHT22;18084;53.028;8.834;2023-09-19T18:51:53;20.60;99.90
31455;DHT22;18084;53.028;8.834;2023-09-19T18:54:18;18.80;99.90
31455;DHT22;18084;53.028;8.834;2023-09-19T18:56:53;21.20;99.90
31455;DHT22;18084;53.028;8.834;2023-09-19T18:59:24;18.70;99.90
31455;DHT22;18084;53.028;8.834;2023-09-19T19:01:50;18.40;99.90
31455;DHT22;18084;53.028;8.834;2023-09-19T19:04:15;22.00;99.90
31455;DHT22;18084;53.028;8.834;2023-09-19T19:06:43;22.20;99.90
31455;DHT22;18084;53.028;8.834;2023-09-19T19:09:15;19.80;99.90
31455;DHT22;18084;53.028;8.834;2023-09-19T19:11:43;19.40;99.90
31455;DHT22;18084;53.028;8.834;2023-09-19T19:14:08;20.30;99.90